Time;durP1;ratioP1;P1;durP2;ratioP2;P2;SDS_P1;SDS_P2;PMS_P1;PMS_P2;Temp;Humidity;BMP_temperature;BMP_pressure;BME280_temperature;BME280_humidity;BME280_pressure;Samples;Min_cycle;Max_cycle;Signal;HPM_P1;HPM_P2
2021/04/08 00:01:16;;;;;;;4.87;3.00;;;;;;;4.69;100.00;100240.55;1742693;82;21544;-83
2021/04/08 00:03:43;;;;;;;6.60;3.60;;;;;;;4.65;100.00;100230.58;1769146;81;22045;-83
2021/04/08 00:06:09;;;;;;;6.37;3.33;;;;;;;4.70;100.00;100243.50;1769073;81;21653;-83
2021/04/08 00:08:35;;;;;;;7.97;4.05;;;;;;;4.65;100.00;100243.41;1742585;82;21087;-83
2021/04/08 00:11:02;;;;;;;9.13;4.10;;;;;;;4.77;100.00;100245.56;1769122;81;20997;-83
2021/04/08 00:13:30;;;;;;;8.60;4.30;;;;;;;4.73;100.00;100235.56;1769067;81;21169;-83
2021/04/08 00:15:56;;;;;;;8.40;4.55;;;;;;;4.69;100.00;100224.54;1742687;82;21143;-83
2021/04/08 00:18:22;;;;;;;9.33;4.80;;;;;;;4.57;100.00;100216.23;1768957;81;21085;-83
2021/04/08 00:20:48;;;;;;;9.40;4.80;;;;;;;4.57;100.00;100229.58;1769166;80;20954;-83
2021/04/08 00:23:13;;;;;;;8.40;5.00;;;;;;;4.53;100.00;100230.56;1742651;82;20907;-83
2021/04/08 00:25:39;;;;;;;8.70;4.70;;;;;;;4.58;100.00;100245.34;1747554;81;21033;-83
2021/04/08 00:28:06;;;;;;;9.00;4.97;;;;;;;4.78;100.00;100257.86;1721477;82;21247;-83
2021/04/08 00:30:43;;;;;;;10.00;5.47;;;;;;;4.74;100.00;100263.90;1769055;81;21144;-83
2021/04/08 00:33:16;;;;;;;9.10;5.45;;;;;;;4.66;100.00;100285.58;1712261;83;21143;-83
2021/04/08 00:35:43;;;;;;;11.63;6.03;;;;;;;4.63;100.00;100296.19;1705572;83;21632;-83
2021/04/08 00:38:11;;;;;;;10.48;5.50;;;;;;;4.59;100.00;100288.35;1709427;83;21152;-83
2021/04/08 00:40:38;;;;;;;11.40;5.95;;;;;;;4.67;100.00;100280.52;1715450;82;21159;-83
2021/04/08 00:43:04;;;;;;;13.58;5.92;;;;;;;4.57;100.00;100307.77;1722179;83;21516;-82
2021/04/08 00:45:31;;;;;;;9.85;5.67;;;;;;;4.61;100.00;100316.13;1722045;83;21096;-83
2021/04/08 00:47:57;;;;;;;16.40;6.60;;;;;;;4.75;100.00;100306.89;1722232;83;21210;-83
2021/04/08 00:50:24;;;;;;;12.37;6.47;;;;;;;4.54;100.00;100302.36;1722208;83;21017;-83
2021/04/08 00:53:00;;;;;;;14.18;6.97;;;;;;;4.69;100.00;100313.95;1722066;83;21218;-83
2021/04/08 00:55:34;;;;;;;14.73;6.65;;;;;;;4.51;100.00;100322.02;1702903;84;21214;-83
2021/04/08 00:58:04;;;;;;;19.30;9.15;;;;;;;4.60;100.00;100329.19;1733552;82;21166;-82
2021/04/08 01:00:33;;;;;;;23.22;10.68;;;;;;;4.40;100.00;100331.59;1703087;84;21616;-83
2021/04/08 01:03:00;;;;;;;25.65;11.00;;;;;;;4.58;100.00;100338.74;1674355;85;21608;-83
2021/04/08 01:05:27;;;;;;;23.12;10.72;;;;;;;4.65;100.00;100340.00;1641907;87;21232;-82
2021/04/08 01:07:53;;;;;;;18.92;8.85;;;;;;;4.58;100.00;100340.60;1659526;86;20973;-82
2021/04/08 01:10:22;;;;;;;18.62;8.83;;;;;;;4.60;100.00;100341.20;1659657;86;20988;-83
2021/04/08 01:12:52;;;;;;;17.50;8.35;;;;;;;4.78;100.00;100331.27;1656659;86;21363;-83
2021/04/08 01:15:20;;;;;;;16.12;8.33;;;;;;;4.59;100.00;100323.54;1659803;86;21209;-83
2021/04/08 01:18:09;;;;;;;16.50;7.83;;;;;;;4.73;100.00;100339.66;1651097;85;21235;-83
2021/04/08 01:21:04;;;;;;;17.57;7.55;;;;;;;4.57;100.00;100349.13;1593963;88;21172;-83
2021/04/08 01:23:53;;;;;;;17.12;7.60;;;;;;;4.68;100.00;100351.56;1632305;87;21164;-83
2021/04/08 01:26:53;;;;;;;14.23;6.97;;;;;;;4.65;100.00;100366.69;1620539;88;21164;-83
2021/04/08 01:30:02;;;;;;;17.90;7.50;;;;;;;4.64;100.00;100379.72;1612637;88;21181;-82
2021/04/08 01:32:29;;;;;;;14.85;7.22;;;;;;;4.50;100.00;100381.25;1590252;90;21210;-83
2021/04/08 01:34:59;;;;;;;15.03;7.17;;;;;;;4.52;100.00;100391.68;1590158;90;21200;-83
2021/04/08 01:37:37;;;;;;;16.12;6.87;;;;;;;4.41;100.00;100393.77;1590220;90;21198;-83
2021/04/08 01:40:08;;;;;;;16.17;7.85;;;;;;;4.36;100.00;100383.78;1571334;91;21238;-83
2021/04/08 01:42:35;;;;;;;15.63;7.45;;;;;;;4.34;100.00;100385.84;1571588;91;21411;-83
2021/04/08 01:45:02;;;;;;;16.23;7.33;;;;;;;4.32;100.00;100390.58;1570244;91;21306;-83
2021/04/08 01:47:30;;;;;;;15.38;7.83;;;;;;;4.30;100.00;100392.68;1577968;90;21271;-83
2021/04/08 01:49:58;;;;;;;16.85;8.10;;;;;;;4.28;100.00;100403.56;1566925;91;21217;-83
2021/04/08 01:52:28;;;;;;;16.60;7.78;;;;;;;4.29;100.00;100391.88;1578161;90;21711;-83
2021/04/08 01:54:58;;;;;;;20.15;8.78;;;;;;;4.28;100.00;100378.74;1567069;91;21190;-83
2021/04/08 01:57:26;;;;;;;17.50;8.18;;;;;;;4.18;100.00;100396.61;1557780;90;21252;-83
2021/04/08 01:59:55;;;;;;;20.00;9.23;;;;;;;4.17;100.00;100403.48;1579906;90;21231;-83
2021/04/08 02:02:22;;;;;;;16.57;8.18;;;;;;;4.20;100.00;100407.04;1562826;90;21125;-83
2021/04/08 02:04:49;;;;;;;19.20;9.15;;;;;;;4.10;100.00;100399.56;1608082;89;21723;-83
2021/04/08 02:07:16;;;;;;;19.37;8.95;;;;;;;4.08;100.00;100418.96;1608317;89;21226;-83
2021/04/08 02:09:43;;;;;;;18.32;8.78;;;;;;;3.97;100.00;100421.86;1608183;89;21255;-82
2021/04/08 02:12:12;;;;;;;17.92;8.80;;;;;;;3.99;100.00;100422.95;1587134;89;21280;-83
2021/04/08 02:14:41;;;;;;;19.73;9.20;;;;;;;4.09;100.00;100421.42;1608295;89;21187;-83
2021/04/08 02:17:10;;;;;;;17.50;8.80;;;;;;;4.10;100.00;100437.70;1608246;89;21485;-83
2021/04/08 02:19:38;;;;;;;18.45;8.83;;;;;;;3.98;100.00;100427.48;1620231;88;21201;-83
2021/04/08 02:22:05;;;;;;;18.25;8.88;;;;;;;3.99;100.00;100445.09;1630705;88;21224;-83
2021/04/08 02:24:32;;;;;;;20.70;9.48;;;;;;;4.00;100.00;100442.74;1630656;88;21189;-83
2021/04/08 02:27:01;;;;;;;22.98;10.15;;;;;;;3.99;100.00;100445.09;1630712;88;21185;-83
2021/04/08 02:29:29;;;;;;;21.42;10.08;;;;;;;3.93;100.00;100455.30;1630706;88;21280;-82
2021/04/08 02:31:56;;;;;;;19.82;9.23;;;;;;;4.04;100.00;100467.92;1608833;88;21153;-83
2021/04/08 02:34:22;;;;;;;22.22;10.20;;;;;;;3.95;100.00;100474.58;1630881;88;21360;-83
2021/04/08 02:36:48;;;;;;;21.90;9.25;;;;;;;3.99;100.00;100473.09;1670690;84;21176;-83
2021/04/08 02:39:14;;;;;;;20.72;8.85;;;;;;;3.81;100.00;100480.53;1662788;86;21009;-83
2021/04/08 02:41:46;;;;;;;29.27;10.63;;;;;;;3.88;100.00;100483.12;1690700;83;21468;-83
2021/04/08 02:44:14;;;;;;;19.95;9.00;;;;;;;3.91;100.00;100481.36;1690680;83;21450;-83
2021/04/08 02:46:41;;;;;;;22.32;9.50;;;;;;;3.95;100.00;100487.09;1690570;83;21268;-82
2021/04/08 02:49:08;;;;;;;21.20;9.28;;;;;;;3.95;100.00;100493.75;1690578;83;21184;-83
2021/04/08 02:51:56;;;;;;;20.77;9.18;;;;;;;3.91;100.00;100502.68;1690688;83;21144;-83
2021/04/08 02:54:36;;;;;;;20.10;8.70;;;;;;;3.91;100.00;100508.02;1690515;84;21184;-83
2021/04/08 02:57:04;;;;;;;17.77;8.20;;;;;;;3.90;100.00;100508.25;1686537;83;21169;-83
2021/04/08 02:59:40;;;;;;;17.10;8.00;;;;;;;3.91;100.00;100505.88;1690581;83;21169;-83
2021/04/08 03:02:12;;;;;;;21.77;9.85;;;;;;;3.92;100.00;100511.00;1631781;87;21163;-83
2021/04/08 03:04:50;;;;;;;17.52;8.20;;;;;;;3.96;100.00;100522.84;1632033;87;21248;-83
2021/04/08 03:07:21;;;;;;;17.52;8.50;;;;;;;3.99;100.00;100521.08;1629625;87;21195;-82
2021/04/08 03:09:48;;;;;;;20.10;9.18;;;;;;;3.99;100.00;100528.27;1631775;87;21670;-82
2021/04/08 03:12:15;;;;;;;17.37;8.40;;;;;;;3.98;100.00;100543.45;1631978;87;21248;-81
2021/04/08 03:14:46;;;;;;;19.48;8.70;;;;;;;3.95;100.00;100547.89;1631899;87;21235;-81
2021/04/08 03:17:19;;;;;;;21.70;9.73;;;;;;;3.97;100.00;100555.66;1609951;87;21682;-83
2021/04/08 03:19:46;;;;;;;21.35;9.50;;;;;;;4.03;100.00;100568.11;1626265;87;21223;-83
2021/04/08 03:22:14;;;;;;;21.52;9.53;;;;;;;3.99;100.00;100566.41;1613334;88;21174;-83
2021/04/08 03:24:41;;;;;;;30.08;11.50;;;;;;;4.07;100.00;100564.80;1631317;88;21920;-83
2021/04/08 03:27:08;;;;;;;34.48;12.65;;;;;;;4.07;100.00;100567.47;1631135;88;21128;-83
2021/04/08 03:29:40;;;;;;;32.25;11.75;;;;;;;4.14;100.00;100577.27;1631146;88;21279;-83
2021/04/08 03:32:08;;;;;;;30.17;11.80;;;;;;;4.08;100.00;100586.95;1630899;88;21250;-83
2021/04/08 03:34:37;;;;;;;27.30;12.07;;;;;;;4.04;100.00;100575.09;1631172;88;21187;-83
2021/04/08 03:37:04;;;;;;;25.45;10.85;;;;;;;4.03;100.00;100579.62;1631310;88;22032;-83
2021/04/08 03:39:30;;;;;;;29.42;11.97;;;;;;;4.17;100.00;100581.64;1654495;83;21190;-83
2021/04/08 03:41:57;;;;;;;27.58;11.83;;;;;;;4.16;100.00;100599.21;1726911;83;21136;-83
2021/04/08 03:44:25;;;;;;;30.68;12.53;;;;;;;4.13;100.00;100595.12;1726841;83;21163;-82
2021/04/08 03:46:55;;;;;;;30.12;12.55;;;;;;;4.22;100.00;100594.34;1726921;83;21608;-83
2021/04/08 03:49:22;;;;;;;27.95;11.55;;;;;;;4.28;100.00;100600.13;1722665;83;21360;-83
2021/04/08 03:51:49;;;;;;;29.77;12.18;;;;;;;4.32;100.00;100598.65;1726910;83;21565;-83
2021/04/08 03:54:16;;;;;;;28.10;11.63;;;;;;;4.46;100.00;100607.36;1726909;83;21182;-83
2021/04/08 03:56:46;;;;;;;25.68;11.00;;;;;;;4.49;100.00;100614.41;1694007;83;21580;-83
2021/04/08 03:59:13;;;;;;;24.15;10.53;;;;;;;4.53;100.00;100616.14;1726854;83;21269;-83
2021/04/08 04:01:40;;;;;;;26.27;10.65;;;;;;;4.64;100.00;100624.73;1726889;83;21186;-83
2021/04/08 04:04:09;;;;;;;30.08;11.00;;;;;;;4.84;100.00;100636.56;1721417;83;21100;-83
2021/04/08 04:06:37;;;;;;;26.90;10.40;;;;;;;4.82;100.00;100643.16;1726919;83;21071;-83
2021/04/08 04:09:05;;;;;;;27.77;11.38;;;;;;;4.87;100.00;100666.02;1726945;83;21460;-83
2021/04/08 04:11:32;;;;;;;20.88;8.98;;;;;;;5.05;100.00;100672.70;1696910;84;21571;-83
2021/04/08 04:14:03;;;;;;;24.50;9.53;;;;;;;5.09;100.00;100665.91;1704579;84;21926;-83
2021/04/08 04:16:31;;;;;;;21.80;9.53;;;;;;;5.36;100.00;100660.27;1704730;84;21064;-83
2021/04/08 04:18:56;;;;;;;20.20;9.25;;;;;;;5.29;100.00;100676.88;1704237;82;21162;-83
2021/04/08 04:21:23;;;;;;;19.98;8.58;;;;;;;5.41;100.00;100680.43;1694931;84;20957;-82
2021/04/08 04:23:49;;;;;;;23.30;8.45;;;;;;;5.43;100.00;100672.49;1695056;84;21203;-83
2021/04/08 04:26:15;;;;;;;18.75;8.55;;;;;;;5.47;100.00;100672.85;1694968;84;21245;-83
2021/04/08 04:28:41;;;;;;;18.57;8.05;;;;;;;5.82;100.00;100679.71;1694799;84;21080;-82
2021/04/08 04:31:07;;;;;;;18.55;8.03;;;;;;;6.22;100.00;100697.12;1694923;83;20945;-83
2021/04/08 04:33:33;;;;;;;19.50;7.90;;;;;;;6.68;100.00;100693.72;1694925;84;21619;-83
2021/04/08 04:35:59;;;;;;;18.95;7.08;;;;;;;6.85;100.00;100691.68;1695080;84;21180;-82
2021/04/08 04:38:26;;;;;;;18.85;7.05;;;;;;;6.82;100.00;100699.16;1695947;84;21263;-83
2021/04/08 04:40:51;;;;;;;16.67;6.87;;;;;;;6.80;100.00;100698.56;1697150;84;20967;-83
2021/04/08 04:43:17;;;;;;;15.08;6.53;;;;;;;6.60;100.00;100695.39;1697135;84;21035;-82
2021/04/08 04:45:43;;;;;;;15.98;6.67;;;;;;;6.77;100.00;100706.25;1697378;84;21074;-83
2021/04/08 04:48:10;;;;;;;21.05;6.75;;;;;;;6.45;100.00;100703.05;1697401;84;20963;-82
2021/04/08 04:50:37;;;;;;;15.85;6.12;;;;;;;6.46;100.00;100702.00;1697213;84;21519;-82
2021/04/08 04:53:04;;;;;;;13.38;6.37;;;;;;;6.39;100.00;100705.31;1697099;84;21181;-83
2021/04/08 04:55:30;;;;;;;17.00;6.03;;;;;;;6.60;100.00;100709.59;1697182;84;21138;-83
2021/04/08 04:57:56;;;;;;;15.23;6.15;;;;;;;6.28;100.00;100714.41;1697242;84;21189;-83
2021/04/08 05:00:23;;;;;;;14.03;5.55;;;;;;;6.51;100.00;100714.19;1697398;84;21033;-83
2021/04/08 05:02:50;;;;;;;16.42;6.20;;;;;;;6.51;100.00;100714.19;1721314;83;21176;-83
2021/04/08 05:05:17;;;;;;;14.50;5.97;;;;;;;6.40;100.00;100716.30;1724733;83;21196;-82
2021/04/08 05:07:44;;;;;;;18.90;6.87;;;;;;;6.86;100.00;100716.09;1724734;83;21203;-82
2021/04/08 05:10:11;;;;;;;12.82;5.47;;;;;;;6.91;100.00;100719.72;1724753;83;21179;-82
2021/04/08 05:12:38;;;;;;;14.25;6.45;;;;;;;6.75;100.00;100723.06;1724815;83;21600;-82
2021/04/08 05:15:06;;;;;;;16.97;6.75;;;;;;;6.89;100.00;100739.21;1724857;82;21187;-82
2021/04/08 05:17:32;;;;;;;13.30;5.85;;;;;;;7.73;100.00;100737.55;1724433;83;21577;-82
2021/04/08 05:19:58;;;;;;;15.18;6.25;;;;;;;8.11;100.00;100743.67;1724450;82;21040;-82
2021/04/08 05:22:25;;;;;;;17.87;7.12;;;;;;;8.70;100.00;100736.69;1724830;83;21056;-82
2021/04/08 05:24:51;;;;;;;15.03;6.62;;;;;;;9.61;100.00;100731.55;1724741;83;21568;-83
2021/04/08 05:27:18;;;;;;;14.60;6.58;;;;;;;10.18;100.00;100730.61;1724733;83;21157;-82
2021/04/08 05:29:44;;;;;;;13.28;6.05;;;;;;;10.76;100.00;100728.18;1724794;83;21191;-82
2021/04/08 05:32:10;;;;;;;13.38;6.35;;;;;;;12.04;100.00;100728.36;1724784;83;20937;-82
2021/04/08 05:34:37;;;;;;;12.90;6.60;;;;;;;12.50;100.00;100735.75;1724676;83;21577;-82
2021/04/08 05:37:03;;;;;;;13.10;6.70;;;;;;;12.96;98.82;100739.25;1724671;83;21068;-82
2021/04/08 05:39:29;;;;;;;13.48;6.42;;;;;;;14.39;94.82;100750.69;1724697;83;22786;-82
2021/04/08 05:41:56;;;;;;;10.13;5.97;;;;;;;15.65;69.56;100753.91;1721019;83;21013;-83
2021/04/08 05:44:22;;;;;;;12.53;6.33;;;;;;;17.15;66.09;100754.20;1724779;81;21159;-84
2021/04/08 05:46:47;;;;;;;13.45;6.20;;;;;;;18.56;53.56;100750.72;1724693;83;21131;-83
2021/04/08 05:49:13;;;;;;;11.83;6.28;;;;;;;17.76;48.96;100759.02;1724805;83;20961;-83
2021/04/08 05:51:39;;;;;;;9.68;5.97;;;;;;;18.72;52.63;100757.44;1724780;83;21239;-83
2021/04/08 05:54:07;;;;;;;9.28;5.75;;;;;;;19.21;47.55;100753.52;1724630;83;21100;-83
2021/04/08 05:56:35;;;;;;;10.90;6.10;;;;;;;19.78;48.29;100760.44;1724757;83;21144;-83
2021/04/08 05:59:01;;;;;;;8.80;5.67;;;;;;;19.39;43.93;100751.11;1717010;83;21215;-83
2021/04/08 06:01:29;;;;;;;13.03;5.72;;;;;;;21.03;44.33;100756.55;1717078;83;21640;-82
2021/04/08 06:03:55;;;;;;;13.03;5.42;;;;;;;20.68;37.22;100754.43;1693421;84;21969;-83
2021/04/08 06:06:21;;;;;;;11.57;5.50;;;;;;;21.36;40.87;100759.27;1693482;83;20962;-82
2021/04/08 06:08:47;;;;;;;9.15;5.97;;;;;;;20.05;41.05;100751.72;1693692;83;21183;-82
2021/04/08 06:11:13;;;;;;;10.20;5.80;;;;;;;20.94;37.83;100749.45;1693708;83;20957;-82
2021/04/08 06:13:39;;;;;;;10.10;5.37;;;;;;;20.88;37.48;100748.81;1693640;83;21231;-82
2021/04/08 06:16:06;;;;;;;12.80;5.97;;;;;;;21.23;40.07;100750.90;1693573;84;21184;-82
2021/04/08 06:18:32;;;;;;;10.82;5.90;;;;;;;23.45;35.77;100748.25;1693500;83;21588;-80
2021/04/08 06:20:58;;;;;;;8.98;5.80;;;;;;;22.93;34.42;100748.02;1691877;83;21239;-80
2021/04/08 06:23:24;;;;;;;11.55;5.80;;;;;;;24.68;29.86;100759.88;1691366;84;21787;-81
2021/04/08 06:25:50;;;;;;;8.93;5.42;;;;;;;21.86;32.79;100764.05;1691392;83;21077;-81
2021/04/08 06:28:16;;;;;;;8.05;5.42;;;;;;;23.23;34.91;100768.72;1667759;84;21170;-81
2021/04/08 06:30:45;;;;;;;10.30;5.62;;;;;;;25.02;32.17;100773.38;1691143;83;21695;-81
2021/04/08 06:33:10;;;;;;;10.38;5.78;;;;;;;25.57;32.84;100778.56;1691031;83;21163;-81
2021/04/08 06:35:36;;;;;;;11.08;5.20;;;;;;;26.51;28.65;100786.45;1691290;83;21167;-81
2021/04/08 06:38:02;;;;;;;9.88;5.20;;;;;;;24.99;29.08;100793.39;1691404;83;21620;-81
2021/04/08 06:40:28;;;;;;;8.93;4.70;;;;;;;25.68;28.31;100781.56;1691477;84;21172;-81
2021/04/08 06:42:55;;;;;;;7.90;4.65;;;;;;;26.78;27.68;100792.91;1691321;84;21616;-81
2021/04/08 06:45:27;;;;;;;7.60;5.10;;;;;;;25.20;28.11;100787.66;1691326;84;21656;-81
2021/04/08 06:48:14;;;;;;;8.70;4.95;;;;;;;25.42;26.72;100783.51;1691358;83;21597;-81
2021/04/08 06:50:43;;;;;;;6.85;4.72;;;;;;;26.43;28.79;100790.98;1634981;86;21209;-81
2021/04/08 06:53:09;;;;;;;9.18;4.78;;;;;;;25.69;27.95;100795.02;1634915;86;22008;-81
2021/04/08 06:55:36;;;;;;;6.87;4.60;;;;;;;24.79;26.77;100802.09;1629466;86;21234;-81
2021/04/08 06:58:05;;;;;;;9.00;4.90;;;;;;;23.77;25.90;100797.47;1620101;87;21284;-81
2021/04/08 07:00:31;;;;;;;8.78;5.08;;;;;;;24.97;27.25;100796.48;1638826;85;21521;-81
2021/04/08 07:02:58;;;;;;;11.65;4.75;;;;;;;24.78;26.42;100806.01;1669267;86;21488;-81
2021/04/08 07:05:25;;;;;;;8.23;5.03;;;;;;;25.53;28.20;100802.48;1669176;86;21605;-81
2021/04/08 07:07:52;;;;;;;9.65;4.97;;;;;;;25.43;28.10;100812.70;1668998;86;21668;-81
2021/04/08 07:10:18;;;;;;;7.20;4.78;;;;;;;25.19;27.33;100808.94;1669309;86;21204;-81
2021/04/08 07:12:44;;;;;;;9.05;4.58;;;;;;;25.42;28.15;100819.38;1669208;86;21192;-80
2021/04/08 07:15:11;;;;;;;9.78;4.95;;;;;;;25.40;26.38;100824.45;1665277;85;21159;-80
2021/04/08 07:17:37;;;;;;;9.60;5.33;;;;;;;24.50;27.00;100826.64;1669201;86;21882;-80
2021/04/08 07:20:04;;;;;;;7.92;5.03;;;;;;;23.64;26.23;100835.72;1668793;85;21013;-80
2021/04/08 07:22:30;;;;;;;9.45;5.00;;;;;;;22.60;28.20;100844.98;1667279;86;21108;-80
2021/04/08 07:24:56;;;;;;;10.35;5.30;;;;;;;21.05;30.45;100835.67;1667355;86;21066;-81
2021/04/08 07:27:25;;;;;;;8.53;4.85;;;;;;;22.23;29.53;100846.91;1667166;86;21096;-81
2021/04/08 07:29:57;;;;;;;11.60;5.08;;;;;;;23.07;28.83;100848.89;1667292;86;21262;-81
2021/04/08 07:32:28;;;;;;;12.10;4.35;;;;;;;23.50;26.73;100842.94;1667158;86;21246;-81
2021/04/08 07:35:16;;;;;;;8.15;4.28;;;;;;;23.60;28.77;100840.89;1667311;86;21272;-81
2021/04/08 07:37:46;;;;;;;9.23;5.10;;;;;;;24.39;26.76;100842.27;1667264;86;21630;-82
2021/04/08 07:40:22;;;;;;;12.37;5.08;;;;;;;23.53;26.73;100843.63;1663755;86;21112;-81
2021/04/08 07:42:48;;;;;;;6.62;4.75;;;;;;;23.99;25.83;100833.93;1667124;86;21171;-81
2021/04/08 07:45:37;;;;;;;8.83;5.10;;;;;;;24.76;25.53;100849.08;1667155;84;21217;-81
2021/04/08 07:48:06;;;;;;;7.30;4.60;;;;;;;26.29;25.93;100855.61;1715221;82;21584;-81
2021/04/08 07:50:38;;;;;;;8.75;4.75;;;;;;;23.70;25.82;100848.13;1732621;82;21103;-81
2021/04/08 07:53:05;;;;;;;7.85;5.40;;;;;;;24.15;26.61;100854.67;1732770;82;21143;-81
2021/04/08 07:55:35;;;;;;;7.42;4.60;;;;;;;23.20;26.77;100869.77;1732659;82;21235;-81
2021/04/08 07:58:09;;;;;;;10.43;4.97;;;;;;;23.00;26.30;100874.19;1732570;82;21589;-82
2021/04/08 08:00:50;;;;;;;7.03;3.52;;;;;;;24.82;25.28;100868.34;1732583;81;21147;-82
2021/04/08 08:03:30;;;;;;;12.63;4.87;;;;;;;23.10;25.18;100878.45;1732789;82;22186;-81
2021/04/08 08:06:01;;;;;;;5.90;4.03;;;;;;;23.65;25.75;100876.41;1638455;87;21235;-81
2021/04/08 08:08:43;;;;;;;9.65;4.42;;;;;;;22.77;25.98;100890.19;1638418;87;21271;-81
2021/04/08 08:11:14;;;;;;;8.07;4.60;;;;;;;20.67;27.68;100899.89;1638637;87;21230;-81
2021/04/08 08:13:50;;;;;;;9.90;4.00;;;;;;;21.98;28.62;100899.41;1638435;87;21191;-82
2021/04/08 08:16:27;;;;;;;10.18;4.12;;;;;;;22.64;26.29;100902.23;1611530;89;21223;-82
2021/04/08 08:18:54;;;;;;;6.72;4.03;;;;;;;22.37;24.91;100895.30;1609659;89;21271;-81
2021/04/08 08:21:36;;;;;;;8.93;3.75;;;;;;;24.26;25.49;100889.67;1609927;87;21249;-81
2021/04/08 08:24:08;;;;;;;;;;;;;;;23.08;26.03;100899.39;1623483;88;21194;-81
2021/04/08 08:26:44;;;;;;;8.75;3.95;;;;;;;23.87;25.40;100891.16;1621201;88;20283;-81
2021/04/08 08:29:17;;;;;;;5.37;3.92;;;;;;;23.38;26.14;100890.23;1621318;88;21190;-82
2021/04/08 08:31:58;;;;;;;5.83;3.80;;;;;;;24.45;25.05;100887.74;1621240;88;21464;-82
2021/04/08 08:35:04;;;;;;;8.65;3.70;;;;;;;26.19;23.91;100879.67;1620777;88;21268;-82
2021/04/08 08:37:36;;;;;;;6.90;3.33;;;;;;;24.66;22.61;100877.94;1642311;86;21723;-84
2021/04/08 08:40:03;;;;;;;8.75;3.70;;;;;;;23.98;23.31;100876.39;1645740;87;21202;-83
2021/04/08 08:42:32;;;;;;;10.03;4.05;;;;;;;22.98;22.35;100900.40;1646180;87;21182;-84
2021/04/08 08:44:59;;;;;;;7.05;3.60;;;;;;;22.37;25.18;100894.72;1646092;87;21609;-84
2021/04/08 08:47:35;;;;;;;7.08;4.12;;;;;;;21.22;25.35;100899.27;1646025;87;21338;-85
2021/04/08 08:50:10;;;;;;;7.42;3.50;;;;;;;20.45;26.59;100900.23;1646117;87;21119;-85
2021/04/08 08:52:40;;;;;;;9.33;3.65;;;;;;;20.36;26.47;100898.84;1645517;87;21218;-84
2021/04/08 08:55:11;;;;;;;6.15;3.52;;;;;;;19.44;27.03;100906.78;1659864;86;21300;-85
2021/04/08 08:57:39;;;;;;;6.20;3.60;;;;;;;20.19;25.89;100904.27;1642183;87;21260;-85
2021/04/08 09:00:08;;;;;;;7.45;3.67;;;;;;;21.48;26.23;100917.08;1642431;87;21197;-83
2021/04/08 09:02:38;;;;;;;5.35;3.52;;;;;;;20.50;27.50;100909.67;1616164;87;21213;-83
2021/04/08 09:07:42;;;;;;;6.47;3.77;;;;;;;21.17;27.34;100907.64;1526621;93;21753;-87
2021/04/08 09:10:11;;;;;;;6.70;3.72;;;;;;;21.12;25.33;100900.41;1503819;95;21234;-86
2021/04/08 09:12:39;;;;;;;6.17;3.55;;;;;;;20.48;26.74;100889.21;1503526;95;21303;-85
2021/04/08 09:15:07;;;;;;;11.63;4.35;;;;;;;21.61;27.41;100890.02;1522834;94;21180;-84
2021/04/08 09:17:55;;;;;;;5.85;3.55;;;;;;;22.45;25.62;100902.11;1503656;95;21528;-85
2021/04/08 09:20:21;;;;;;;8.78;3.62;;;;;;;21.93;24.29;100905.08;1480795;95;21736;-84
2021/04/08 09:23:01;;;;;;;6.17;3.55;;;;;;;21.14;26.12;100908.29;1468616;97;21241;-83
2021/04/08 09:25:37;;;;;;;6.03;3.55;;;;;;;18.28;28.60;100916.45;1468612;97;21317;-83
2021/04/08 09:28:10;;;;;;;9.58;3.67;;;;;;;18.41;27.99;100916.19;1438420;99;21259;-84
2021/04/08 09:33:48;;;;;;;9.83;3.40;;;;;;;19.91;28.00;100914.06;1441170;99;21254;-83
2021/04/08 09:36:26;;;;;;;7.40;3.62;;;;;;;20.87;26.11;100906.12;1441053;99;21265;-83
2021/04/08 09:39:03;;;;;;;7.80;3.70;;;;;;;21.46;28.01;100903.68;1440996;99;21317;-84
2021/04/08 09:41:49;;;;;;;7.50;3.42;;;;;;;21.15;27.87;100905.78;1441235;99;21803;-84
2021/04/08 09:44:15;;;;;;;5.30;3.20;;;;;;;21.91;25.35;100907.91;1444272;97;21170;-84
2021/04/08 09:46:50;;;;;;;6.37;3.52;;;;;;;20.89;27.21;100916.20;1465525;97;21171;-83
2021/04/08 09:49:39;;;;;;;7.55;3.22;;;;;;;21.44;25.06;100910.08;1465395;97;21287;-84
2021/04/08 09:52:06;;;;;;;9.20;3.58;;;;;;;20.83;25.88;100912.00;1481467;95;21852;-85
2021/04/08 09:54:48;;;;;;;7.30;3.35;;;;;;;20.52;26.28;100911.55;1530661;91;21202;-84
2021/04/08 09:57:35;;;;;;;7.43;3.20;;;;;;;19.61;26.96;100913.45;1562966;91;21234;-84
2021/04/08 10:00:01;;;;;;;7.75;3.67;;;;;;;19.61;27.70;100897.85;1565718;91;21209;-84
2021/04/08 10:02:28;;;;;;;6.45;3.50;;;;;;;20.13;27.54;100894.02;1565519;91;21249;-84
2021/04/08 10:05:12;;;;;;;5.40;2.65;;;;;;;20.22;25.79;100900.89;1573234;88;21992;-83
2021/04/08 10:07:57;;;;;;;6.10;3.12;;;;;;;18.83;26.05;100898.11;1605694;89;21246;-84
2021/04/08 10:10:42;;;;;;;6.97;3.15;;;;;;;18.49;26.67;100913.55;1561385;90;21172;-85
2021/04/08 10:13:25;;;;;;;7.80;3.58;;;;;;;17.85;26.93;100904.45;1588476;87;21258;-84
2021/04/08 10:15:54;;;;;;;8.43;3.27;;;;;;;16.25;29.15;100905.16;1593064;90;21667;-84
2021/04/08 10:18:24;;;;;;;8.48;3.72;;;;;;;16.04;31.21;100906.50;1592910;88;21222;-85
2021/04/08 10:20:54;;;;;;;7.72;3.55;;;;;;;15.30;31.71;100904.45;1590196;88;21238;-84
2021/04/08 10:23:42;;;;;;;7.35;3.98;;;;;;;15.33;32.37;100906.05;1576935;91;21516;-84
2021/04/08 10:26:11;;;;;;;7.35;3.08;;;;;;;15.28;32.42;100916.95;1577080;91;21253;-86
2021/04/08 10:28:47;;;;;;;7.70;3.65;;;;;;;15.73;31.77;100920.94;1577118;89;21647;-85
2021/04/08 10:31:30;;;;;;;8.65;3.37;;;;;;;15.53;31.56;100924.61;1576824;91;21420;-85
2021/04/08 10:34:10;;;;;;;9.43;3.35;;;;;;;15.64;31.12;100923.44;1579146;89;28354;-86
2021/04/08 10:36:40;;;;;;;5.15;3.00;;;;;;;14.82;32.51;100930.80;1576857;91;21659;-86
2021/04/08 10:39:20;;;;;;;5.90;3.25;;;;;;;14.96;32.96;100926.38;1577040;91;21166;-85
2021/04/08 10:42:11;;;;;;;5.75;2.90;;;;;;;14.35;31.28;100930.71;1577015;91;21164;-86
2021/04/08 10:44:41;;;;;;;8.53;3.35;;;;;;;14.57;31.93;100932.30;1484594;95;21726;-85
2021/04/08 10:47:13;;;;;;;6.78;3.17;;;;;;;13.83;31.33;100928.69;1503200;95;21680;-89
2021/04/08 10:49:57;;;;;;;6.10;3.22;;;;;;;14.20;31.74;100940.25;1503331;95;21692;-85
2021/04/08 10:52:35;;;;;;;5.70;2.70;;;;;;;13.96;31.01;100944.91;1503276;95;21195;-85
2021/04/08 10:55:09;;;;;;;7.40;2.80;;;;;;;14.34;31.38;100948.08;1487444;96;21675;-85
2021/04/08 10:57:36;;;;;;;7.85;3.05;;;;;;;13.88;33.21;100955.48;1487467;96;21446;-87
2021/04/08 11:00:08;;;;;;;6.80;3.10;;;;;;;13.85;32.51;100954.14;1487437;96;21375;-86
2021/04/08 11:02:41;;;;;;;7.00;2.92;;;;;;;13.73;32.81;100961.19;1487609;96;21235;-86
2021/04/08 11:05:24;;;;;;;6.92;2.80;;;;;;;14.13;32.25;100962.78;1487660;96;21215;-85
2021/04/08 11:07:58;;;;;;;5.00;2.77;;;;;;;13.95;32.05;100966.33;1505415;95;21699;-86
2021/04/08 11:10:28;;;;;;;5.60;2.75;;;;;;;13.93;32.00;100971.20;1550988;92;21260;-86
2021/04/08 11:12:56;;;;;;;7.97;2.98;;;;;;;14.00;33.02;100970.91;1553071;91;21250;-87
2021/04/08 11:15:26;;;;;;;5.58;2.72;;;;;;;14.30;32.42;100966.80;1553069;91;21238;-87
2021/04/08 11:17:56;;;;;;;5.92;3.02;;;;;;;14.33;31.34;100962.73;1499980;95;21661;-85
2021/04/08 11:20:44;;;;;;;6.15;2.98;;;;;;;14.18;32.66;100963.59;1500092;95;21255;-86
2021/04/08 11:23:14;;;;;;;5.58;2.52;;;;;;;13.93;33.41;100968.49;1560508;91;21201;-87
2021/04/08 11:25:41;;;;;;;8.68;2.90;;;;;;;14.12;34.56;100967.91;1560471;90;21253;-86
2021/04/08 11:28:08;;;;;;;6.78;2.90;;;;;;;14.48;32.67;100972.17;1587948;89;21259;-86
2021/04/08 11:30:38;;;;;;;7.90;3.08;;;;;;;14.33;32.25;100968.16;1587805;90;21210;-85
2021/04/08 11:33:11;;;;;;;6.30;2.40;;;;;;;14.93;31.70;100966.30;1631976;87;21170;-84
2021/04/08 11:35:44;;;;;;;5.55;2.77;;;;;;;14.42;32.16;100971.92;1552070;92;21268;-85
2021/04/08 11:38:17;;;;;;;7.20;3.00;;;;;;;14.95;31.80;100980.95;1542831;93;21231;-85
2021/04/08 11:41:03;;;;;;;9.10;2.98;;;;;;;15.19;31.01;100971.59;1542585;92;21749;-85